»·PEaware :: N701GT KLPC-L70

N701GT :: KLPC-L70

FLIGHT INFORMATION

Flight Status: Arrived
Operator: Privately registered:
United States
More flights under this callsign
Pilot: Anonymous 17564 (17564)
Aircraft: PIPER PA-44 SEMINOLE
(PA44)
More flights by this aircraft type
Origin: KLPC Lompoc
United States
Destination: L70 Agua Dulce
United States
More flights between these airports :: More routes between these airports
Route: GVO V12 RZS V386 SAUGS
File this flight plan on PilotEdge
Remarks: P3Dv4.1 ORBX GLOBAL / VECTOR / NA openLC / SOCAL / NORCAL / PACNW / CTL RKIES / F1 GTN750 G600 / ASP4 Weather Gen
Altitude:
(Current/Filed)
5,500ft
Speed:
(Current/Filed)
150kts
Departed: 04-Mar-18 09:20 AM
Arrived: 04-Mar-18 10:05 AM
Distance/Time
Traveled:
107nm/0:45
Distance/Time
To Go:
Arrived

Flight Plot

Page will automatically refresh every two minutes.

Flight plan parsing failed; only flown route is shown


Map Options




Map Legend


Flown Route
Filed Route
Departure Airport
Arrival Airport
Navaid (VOR, NDB)
Fix

Horizontal Profiles

Position Reports

Time Latitude Longitude Heading Altitude Ground
Speed
04-Mar-18 09:16 34.666514 -120.464647 0 91ft 0kts
04-Mar-18 09:17 34.666514 -120.464647 0 91ft 0kts
04-Mar-18 09:18 34.666514 -120.464647 0 91ft 0kts
04-Mar-18 09:19 34.666514 -120.464647 0 91ft 0kts
04-Mar-18 09:20 34.666514 -120.464647 0 91ft 0kts
04-Mar-18 09:21 34.666514 -120.464647 0 91ft 0kts
04-Mar-18 09:22 34.666514 -120.464647 0 91ft 0kts
04-Mar-18 09:23 34.666342 -120.464520 98 91ft 3kts
04-Mar-18 09:24 34.666292 -120.462739 90 91ft 0kts
04-Mar-18 09:25 34.666239 -120.461323 88 91ft 6kts
04-Mar-18 09:26 34.665670 -120.460831 198 91ft 6kts
04-Mar-18 09:27 34.659106 -120.480783 151 857ft 101kts
04-Mar-18 09:28 34.657096 -120.445175 99 2063ft 125kts
04-Mar-18 09:29 34.643615 -120.406841 116 2849ft 141kts
04-Mar-18 09:30 34.627624 -120.362016 114 3664ft 150kts
04-Mar-18 09:31 34.610905 -120.314844 114 4461ft 151kts
04-Mar-18 09:32 34.597117 -120.275964 114 5078ft 151kts
04-Mar-18 09:33 34.577040 -120.219441 114 5511ft 161kts
04-Mar-18 09:34 34.558818 -120.168190 114 5482ft 165kts
04-Mar-18 09:35 34.545187 -120.129919 114 5482ft 165kts
04-Mar-18 09:36 34.529929 -120.077387 93 5495ft 165kts
04-Mar-18 09:37 34.526011 -120.012137 94 5481ft 166kts
04-Mar-18 09:38 34.522966 -119.966856 94 5481ft 158kts
04-Mar-18 09:39 34.519353 -119.913720 94 5485ft 157kts
04-Mar-18 09:40 34.515735 -119.860863 94 5487ft 157kts
04-Mar-18 09:41 34.512100 -119.808005 95 5488ft 157kts
04-Mar-18 09:42 34.506975 -119.755166 102 5489ft 157kts
04-Mar-18 09:43 34.498170 -119.703244 102 5487ft 157kts
04-Mar-18 09:44 34.489380 -119.651181 102 5486ft 157kts
04-Mar-18 09:45 34.480609 -119.599256 100 5497ft 159kts
04-Mar-18 09:46 34.471630 -119.546192 102 5484ft 159kts
04-Mar-18 09:47 34.463538 -119.498803 102 5485ft 157kts
04-Mar-18 09:48 34.454709 -119.447065 102 5485ft 156kts
04-Mar-18 09:49 34.445869 -119.395418 102 5486ft 157kts
04-Mar-18 09:50 34.437862 -119.348666 102 5486ft 157kts
04-Mar-18 09:51 34.428963 -119.296857 102 5492ft 158kts
04-Mar-18 09:52 34.420796 -119.249407 102 5487ft 158kts
04-Mar-18 09:53 34.411857 -119.197604 103 5489ft 157kts
04-Mar-18 09:54 34.402929 -119.146085 103 5493ft 156kts
04-Mar-18 09:55 34.393931 -119.094313 103 5490ft 156kts
04-Mar-18 09:56 34.384992 -119.042739 103 5489ft 157kts
04-Mar-18 09:57 34.375932 -118.990900 103 5505ft 158kts
04-Mar-18 09:58 34.366777 -118.938225 103 5486ft 157kts
04-Mar-18 09:59 34.357637 -118.885909 94 5491ft 157kts
04-Mar-18 10:00 34.371379 -118.838341 63 5487ft 150kts
04-Mar-18 10:01 34.387185 -118.791614 63 5492ft 151kts
04-Mar-18 10:02 34.403209 -118.744293 63 5313ft 150kts
04-Mar-18 10:03 34.419339 -118.696692 64 4577ft 153kts
04-Mar-18 10:04 34.435544 -118.648776 65 3844ft 154kts
04-Mar-18 10:05 34.451713 -118.600876 65 3592ft 150kts
04-Mar-18 10:06 34.467534 -118.553963 65 3599ft 150kts
04-Mar-18 10:07 34.483327 -118.507045 65 3602ft 150kts
04-Mar-18 10:08 34.497511 -118.459264 83 3606ft 151kts
04-Mar-18 10:09 34.499044 -118.407725 86 3595ft 154kts
04-Mar-18 10:10 34.500920 -118.357349 86 3574ft 129kts
04-Mar-18 10:11 34.494240 -118.327474 71 3134ft 93kts
04-Mar-18 10:12 34.504475 -118.311845 327 2605ft 0kts
04-Mar-18 10:13 34.504302 -118.312704 232 2605ft 4kts
04-Mar-18 10:14 34.503214 -118.314568 323 2605ft 2kts
04-Mar-18 10:15 34.503316 -118.314647 324 2605ft 0kts
04-Mar-18 10:16 34.503316 -118.314647 324 2605ft 0kts
04-Mar-18 10:17 34.503316 -118.314647 324 2605ft 0kts
04-Mar-18 10:18 34.503316 -118.314647 324 2605ft 0kts
04-Mar-18 10:19 34.503316 -118.314647 324 2605ft 0kts
04-Mar-18 10:20 34.503316 -118.314647 324 2605ft 0kts
04-Mar-18 10:21 34.503316 -118.314647 324 2605ft 0kts
04-Mar-18 10:22 34.503316 -118.314647 324 2605ft 0kts
04-Mar-18 10:23 34.503316 -118.314647 324 2605ft 0kts
04-Mar-18 10:24 34.503316 -118.314647 324 2605ft 0kts
04-Mar-18 10:25 34.503316 -118.314647 324 2605ft 0kts
04-Mar-18 10:26 34.503316 -118.314647 324 2605ft 0kts

Navigation Log

Ident Type
Flight plan parsing failed, navigation log unavailable